Airfield :
LOGIN :

Register | Disclaimer

   EN    FR    IT 

 










Legend :    VFR   Marginal VFR   IFR   Intensive IFR   Very Intensive IFR
Visi :
Ceiling :
>= 8 km
>= 3000ft
5 to 8 km
1000 to 3000 ft
1500m to 5 km
500 to 1000 ft
800 to 1500m
200 to 500 ft
< 800m
< 200 ft
Symbols :   Thunderstorms  Fog  Heavy snow  Heavy precipitations  Wind > 20 kt
SIGMETs :     Misc.  Thunderstorms  Icing  Turbulence  Mountain Waves  Volcanic Ashes







- Airport Elevation : 37 ft


EHVL - Vlieland Heliport

CURRENT METAR :
  • 191644Z AUTO 31015KT 9999 SCT024 SCT030 15/10 Q1018 WHT

EXPIRED METARs :
  • 191625Z AUTO 31015KT 9999 SCT047 SCT170 15/10 Q1018 BLU
  • 191614Z AUTO 30017KT 9999 FEW023 SCT035 15/10 Q1018 BLU
  • 191603Z AUTO 30015KT 9999 SCT024 BKN027 BKN031 15/10 Q1018 WHT
  • 191555Z AUTO 30014KT 9999 FEW025 SCT036 BKN052 15/10 Q1018 BLU
  • 191525Z AUTO 30014KT 9999 OVC180 15/10 Q1018 BLU
  • 191455Z AUTO 30014KT 9999 FEW026 OVC180 16/10 Q1018 BLU
  • 191425Z AUTO 30013KT 9999 // FEW024 SCT034 16/10 Q1018 BLU
  • 191415Z AUTO 30013KT 9999 // SCT023 BKN027 BKN033 16/11 Q1018 WHT
  • 191413Z AUTO 30012KT 9999 FEW023 SCT028 OVC180 16/11 Q1018 BLU
  • 191355Z AUTO 31011KT 9999 FEW025 OVC180 16/11 Q1018 BLU

Expired Forecast.
No reported NOTAMs for that airfield.



MET'MAP, your aeronautical weather chart ! - Copyright ORBIFLY December 2007 - Disclaimer

ORBIFLY MET'MAP TEAM :

Programming & Development : Alexandra Zaïnal
Concept & Development : Baudouin d'Aumeries
Co-Development & Prog : Marc-Olivier Méhu
Technical & hardware support : Manuel Goepfert

Contact : metmap@orbifly.com




SOURCES & CREDITS :

   NOAA